Time;durP1;ratioP1;P1;durP2;ratioP2;P2;SDS_P1;SDS_P2;PMS_P1;PMS_P2;Temp;Humidity;BMP_temperature;BMP_pressure;BME280_temperature;BME280_humidity;BME280_pressure;Samples;Min_cycle;Max_cycle;Signal;HPM_P1;HPM_P2
2023/05/25 00:01:06;;;;;;;11.73;3.33;;;13.40;81.50;;;;;;5152605;27;20113;-83
2023/05/25 00:03:32;;;;;;;9.30;3.63;;;13.40;81.50;;;;;;5152517;27;20023;-83
2023/05/25 00:06:02;;;;;;;11.40;2.92;;;13.40;81.50;;;;;;5135120;27;20039;-83
2023/05/25 00:08:28;;;;;;;7.78;3.33;;;13.40;81.60;;;;;;5137927;27;20058;-83
2023/05/25 00:10:54;;;;;;;9.13;3.38;;;13.30;81.50;;;;;;5156314;27;20019;-83
2023/05/25 00:13:20;;;;;;;8.10;3.00;;;13.30;81.50;;;;;;5156227;27;20075;-83
2023/05/25 00:15:45;;;;;;;9.02;3.55;;;13.30;81.60;;;;;;5138777;27;20383;-83
2023/05/25 00:18:11;;;;;;;7.00;3.03;;;13.30;81.50;;;;;;5121678;27;20122;-83
2023/05/25 00:20:38;;;;;;;6.18;2.95;;;13.30;81.40;;;;;;5121887;27;20050;-83
2023/05/25 00:23:03;;;;;;;8.68;3.00;;;13.30;81.50;;;;;;5156113;27;20023;-83
2023/05/25 00:25:29;;;;;;;8.50;3.35;;;13.30;81.40;;;;;;5138744;27;20087;-83
2023/05/25 00:27:55;;;;;;;6.45;3.28;;;13.20;81.30;;;;;;5138570;27;20023;-83
2023/05/25 00:30:20;;;;;;;8.82;3.20;;;13.20;81.30;;;;;;5138558;27;20386;-82
2023/05/25 00:32:46;;;;;;;7.90;3.50;;;13.20;81.50;;;;;;5121286;27;20019;-83
2023/05/25 00:35:12;;;;;;;8.88;3.30;;;13.20;81.50;;;;;;5121359;27;20483;-83
2023/05/25 00:37:38;;;;;;;5.68;2.97;;;13.20;81.50;;;;;;5155769;27;20103;-83
2023/05/25 00:40:07;;;;;;;8.65;3.40;;;13.10;81.50;;;;;;5138589;27;20015;-83
2023/05/25 00:42:32;;;;;;;7.53;2.90;;;13.10;81.60;;;;;;5138688;27;20023;-83
2023/05/25 00:44:58;;;;;;;9.13;2.92;;;13.00;81.70;;;;;;5155626;27;20053;-83
2023/05/25 00:47:24;;;;;;;7.80;2.85;;;13.10;81.70;;;;;;5156034;27;20054;-83
2023/05/25 00:49:50;;;;;;;7.40;3.05;;;13.10;81.60;;;;;;5138414;27;20026;-82
2023/05/25 00:52:16;;;;;;;9.15;3.38;;;13.00;81.50;;;;;;5138303;27;20034;-83
2023/05/25 00:57:50;;;;;;;5.43;2.90;;;13.00;81.40;;;;;;5156705;27;20078;-83
2023/05/25 01:00:17;;;;;;;6.50;2.92;;;13.00;81.30;;;;;;5155465;27;20019;-83
2023/05/25 01:02:44;;;;;;;6.70;2.70;;;13.00;81.20;;;;;;5155161;27;20030;-83
2023/05/25 01:05:13;;;;;;;6.70;3.08;;;13.00;81.10;;;;;;5155419;27;20037;-83
2023/05/25 01:07:43;;;;;;;8.07;3.00;;;13.00;81.10;;;;;;5155067;27;20042;-83
2023/05/25 01:10:10;;;;;;;5.63;3.08;;;12.90;81.10;;;;;;5155366;27;20440;-83
2023/05/25 01:12:41;;;;;;;5.50;3.05;;;12.90;81.10;;;;;;5138116;27;20422;-83
2023/05/25 01:15:07;;;;;;;7.72;2.75;;;12.90;81.20;;;;;;5156031;27;20026;-83
2023/05/25 01:17:36;;;;;;;5.55;3.50;;;12.80;81.10;;;;;;5137957;27;20034;-83
2023/05/25 01:20:05;;;;;;;7.43;3.15;;;12.90;81.20;;;;;;5153672;27;20030;-83
2023/05/25 01:25:46;;;;;;;6.97;3.05;;;12.80;81.10;;;;;;5156365;27;20128;-83
2023/05/25 01:28:20;;;;;;;6.40;2.97;;;12.80;81.40;;;;;;5154746;27;20388;-83
2023/05/25 01:30:48;;;;;;;5.80;2.92;;;12.70;81.40;;;;;;5154729;27;20026;-83
2023/05/25 01:33:18;;;;;;;7.50;3.20;;;12.70;81.20;;;;;;5155929;27;20023;-83
2023/05/25 01:35:46;;;;;;;8.10;3.03;;;12.60;81.10;;;;;;5155767;27;20018;-83
2023/05/25 01:38:12;;;;;;;7.03;3.40;;;12.70;81.00;;;;;;5154703;27;20037;-83
2023/05/25 01:40:37;;;;;;;7.97;3.03;;;12.70;81.00;;;;;;5137388;27;20023;-83
2023/05/25 01:43:03;;;;;;;7.47;3.70;;;12.70;80.90;;;;;;5137106;27;20050;-83
2023/05/25 01:45:31;;;;;;;7.63;3.42;;;12.60;80.50;;;;;;5137288;27;20114;-83
2023/05/25 01:48:24;;;;;;;8.57;3.10;;;12.50;80.60;;;;;;5154445;27;20026;-83
2023/05/25 01:50:59;;;;;;;7.95;3.17;;;12.40;80.50;;;;;;5154453;27;20471;-83
2023/05/25 01:53:39;;;;;;;5.63;3.28;;;12.40;80.50;;;;;;5154367;27;20029;-83
2023/05/25 01:56:07;;;;;;;5.45;3.05;;;12.40;80.50;;;;;;5154219;27;20079;-83
2023/05/25 01:58:40;;;;;;;5.78;3.10;;;12.30;80.60;;;;;;5155440;27;20021;-82
2023/05/25 02:01:08;;;;;;;6.10;2.97;;;12.30;80.50;;;;;;5154197;27;20352;-83
2023/05/25 02:03:36;;;;;;;7.57;3.30;;;12.30;81.60;;;;;;5154109;27;20014;-83
2023/05/25 02:06:01;;;;;;;6.00;2.80;;;12.30;81.00;;;;;;5155510;27;20019;-82
2023/05/25 02:08:27;;;;;;;7.82;3.78;;;12.20;80.80;;;;;;5119452;27;20030;-83
2023/05/25 02:10:53;;;;;;;7.43;3.20;;;12.20;80.80;;;;;;5136978;27;20026;-82
2023/05/25 02:13:18;;;;;;;6.45;3.25;;;12.20;81.60;;;;;;5136838;27;20027;-83
2023/05/25 02:15:44;;;;;;;5.80;3.20;;;12.20;80.80;;;;;;5136413;27;20049;-83
2023/05/25 02:18:09;;;;;;;10.77;3.63;;;12.20;80.70;;;;;;5119519;27;20022;-83
2023/05/25 02:20:36;;;;;;;7.50;3.40;;;12.10;80.60;;;;;;5136580;27;20061;-83
2023/05/25 02:23:01;;;;;;;7.90;3.58;;;12.10;80.80;;;;;;5153619;27;20471;-83
2023/05/25 02:25:27;;;;;;;7.97;3.50;;;12.00;81.20;;;;;;5119433;27;20033;-83
2023/05/25 02:27:53;;;;;;;8.95;3.45;;;11.90;81.40;;;;;;5136393;27;20023;-83
2023/05/25 02:30:18;;;;;;;5.00;3.42;;;11.90;81.60;;;;;;5135976;27;20584;-83
2023/05/25 02:32:44;;;;;;;8.07;3.42;;;11.90;81.80;;;;;;5136623;27;20054;-83
2023/05/25 02:35:10;;;;;;;6.63;3.35;;;12.00;81.80;;;;;;5136256;27;20026;-83
2023/05/25 02:37:36;;;;;;;6.63;3.40;;;11.90;81.70;;;;;;5136143;27;20029;-82
2023/05/25 02:40:02;;;;;;;7.53;3.50;;;11.90;81.50;;;;;;5153513;27;20023;-83
2023/05/25 02:42:28;;;;;;;5.70;3.28;;;11.90;81.30;;;;;;5153554;27;20019;-83
2023/05/25 02:44:54;;;;;;;6.75;3.20;;;11.90;81.10;;;;;;5118757;27;20047;-83
2023/05/25 02:47:20;;;;;;;5.20;3.55;;;11.90;81.10;;;;;;5136444;27;20061;-83
2023/05/25 02:49:46;;;;;;;4.70;3.05;;;11.80;81.20;;;;;;5119193;27;20129;-83
2023/05/25 02:52:12;;;;;;;8.70;3.63;;;11.60;81.40;;;;;;5153751;27;20496;-82
2023/05/25 02:54:38;;;;;;;9.77;3.88;;;11.60;81.80;;;;;;5119132;27;20417;-83
2023/05/25 02:57:04;;;;;;;5.55;3.30;;;11.60;81.90;;;;;;5154660;27;20023;-83
2023/05/25 02:59:30;;;;;;;7.15;4.40;;;11.50;82.10;;;;;;5153225;27;20026;-83
2023/05/25 03:01:58;;;;;;;6.45;3.22;;;11.50;82.10;;;;;;5153672;27;20019;-83
2023/05/25 03:04:23;;;;;;;6.18;3.53;;;11.50;82.10;;;;;;5153526;27;20029;-82
2023/05/25 03:06:49;;;;;;;9.50;3.50;;;11.50;81.70;;;;;;5135933;27;20113;-83
2023/05/25 03:09:15;;;;;;;6.50;3.45;;;11.50;81.60;;;;;;5135889;27;20058;-83
2023/05/25 03:11:40;;;;;;;8.50;3.67;;;11.60;81.60;;;;;;5135822;27;20050;-83
2023/05/25 03:14:06;;;;;;;5.15;3.28;;;11.50;81.40;;;;;;5153145;27;20080;-83
2023/05/25 03:16:35;;;;;;;8.57;3.78;;;11.50;81.20;;;;;;5118939;27;20062;-83
2023/05/25 03:19:04;;;;;;;8.77;4.00;;;11.50;81.20;;;;;;5154610;27;20014;-83
2023/05/25 03:21:31;;;;;;;6.70;3.33;;;11.40;81.00;;;;;;5136234;27;20023;-83
2023/05/25 03:23:56;;;;;;;8.10;3.40;;;11.40;81.40;;;;;;5135840;27;20026;-83
2023/05/25 03:26:24;;;;;;;6.80;3.17;;;11.30;81.60;;;;;;5118767;27;20023;-83
2023/05/25 03:28:50;;;;;;;6.30;3.50;;;11.20;81.90;;;;;;5152920;27;20026;-83
2023/05/25 03:31:16;;;;;;;10.80;3.92;;;11.30;82.00;;;;;;5135825;27;20551;-82
2023/05/25 03:33:42;;;;;;;5.53;3.35;;;11.30;81.90;;;;;;5135936;27;20491;-83
2023/05/25 03:36:08;;;;;;;7.50;3.40;;;11.30;81.80;;;;;;5135639;27;20038;-83
2023/05/25 03:38:36;;;;;;;11.68;3.40;;;11.30;81.80;;;;;;5152830;27;20019;-83
2023/05/25 03:41:01;;;;;;;8.25;3.30;;;11.20;81.80;;;;;;5135604;27;20071;-83
2023/05/25 03:43:27;;;;;;;5.43;3.40;;;11.20;81.90;;;;;;5154831;27;20054;-83
2023/05/25 03:45:52;;;;;;;6.30;3.38;;;11.20;81.80;;;;;;5156733;27;20103;-83
2023/05/25 03:48:18;;;;;;;8.60;3.63;;;11.20;81.90;;;;;;5139452;27;20122;-83
2023/05/25 03:50:44;;;;;;;7.85;3.53;;;11.20;82.00;;;;;;5122310;27;20031;-83
2023/05/25 03:53:10;;;;;;;6.28;3.60;;;11.20;82.00;;;;;;5139329;27;20386;-82
2023/05/25 03:55:35;;;;;;;7.10;3.42;;;11.20;82.00;;;;;;5139367;27;20033;-83
2023/05/25 03:58:01;;;;;;;9.05;3.75;;;11.10;82.10;;;;;;5156426;27;20065;-83
2023/05/25 04:00:27;;;;;;;7.53;3.90;;;11.10;82.20;;;;;;5122111;27;20357;-83
2023/05/25 04:02:52;;;;;;;9.32;4.03;;;11.20;82.40;;;;;;5156586;27;20023;-83
2023/05/25 04:05:18;;;;;;;8.07;3.58;;;11.20;82.40;;;;;;5122058;27;20113;-82
2023/05/25 04:07:44;;;;;;;8.07;4.07;;;11.20;82.40;;;;;;5139085;27;20039;-83
2023/05/25 04:10:10;;;;;;;7.85;3.83;;;11.20;82.50;;;;;;5122253;27;20023;-82
2023/05/25 04:12:36;;;;;;;9.30;4.45;;;11.20;82.60;;;;;;5156267;27;20035;-83
2023/05/25 04:15:04;;;;;;;7.57;3.45;;;11.10;82.70;;;;;;5139323;27;20042;-83
2023/05/25 04:17:30;;;;;;;10.27;3.90;;;11.10;83.00;;;;;;5139090;27;20113;-83
2023/05/25 04:19:55;;;;;;;8.27;3.97;;;11.10;83.30;;;;;;5156136;27;20109;-83
2023/05/25 04:22:21;;;;;;;9.30;4.38;;;11.10;84.50;;;;;;5138713;27;20023;-82
2023/05/25 04:24:47;;;;;;;9.55;4.65;;;11.20;84.00;;;;;;5138663;27;20023;-83
2023/05/25 04:27:13;;;;;;;9.13;3.65;;;11.30;84.00;;;;;;5155838;27;20029;-83
2023/05/25 04:29:40;;;;;;;9.60;4.07;;;11.30;84.00;;;;;;5155915;27;20030;-82
2023/05/25 04:32:08;;;;;;;7.95;3.80;;;11.30;84.70;;;;;;5138770;27;20510;-83
2023/05/25 04:34:35;;;;;;;10.35;4.15;;;11.20;84.00;;;;;;5121749;27;20031;-83
2023/05/25 04:37:04;;;;;;;7.03;4.10;;;11.20;84.30;;;;;;5138310;27;20027;-83
2023/05/25 04:39:31;;;;;;;11.23;4.63;;;11.20;84.60;;;;;;5138759;27;20123;-83
2023/05/25 04:41:57;;;;;;;11.48;4.88;;;11.30;85.20;;;;;;5121868;27;20087;-83
2023/05/25 04:44:23;;;;;;;8.50;4.28;;;11.30;85.70;;;;;;5120912;27;20133;-83
2023/05/25 04:46:49;;;;;;;9.02;4.53;;;11.40;85.90;;;;;;5121035;27;20490;-83
2023/05/25 04:49:17;;;;;;;8.93;4.43;;;11.50;86.00;;;;;;5121021;27;20037;-83
2023/05/25 04:51:43;;;;;;;10.65;4.70;;;11.50;85.90;;;;;;5121828;27;20031;-83
2023/05/25 04:54:09;;;;;;;9.82;5.00;;;11.50;86.10;;;;;;5155069;27;20045;-83
2023/05/25 04:56:34;;;;;;;9.88;5.20;;;11.60;86.60;;;;;;5138186;27;20471;-82
2023/05/25 04:59:00;;;;;;;8.48;4.40;;;11.70;87.00;;;;;;5120849;27;20015;-83
2023/05/25 05:01:26;;;;;;;8.85;4.72;;;11.70;87.30;;;;;;5138075;27;20026;-83
2023/05/25 05:03:51;;;;;;;12.77;6.00;;;11.80;87.60;;;;;;5120690;27;20499;-83
2023/05/25 05:06:17;;;;;;;10.95;4.88;;;11.80;87.60;;;;;;5120742;27;20106;-83
2023/05/25 05:08:42;;;;;;;10.52;5.13;;;11.90;87.70;;;;;;5137620;27;20259;-83
2023/05/25 05:11:08;;;;;;;11.80;5.30;;;11.90;87.70;;;;;;5117399;27;20031;-83
2023/05/25 05:13:34;;;;;;;9.75;4.72;;;11.90;87.90;;;;;;5137416;27;20575;-83
2023/05/25 05:16:00;;;;;;;12.10;4.63;;;12.00;88.10;;;;;;5137371;27;20088;-83
2023/05/25 05:18:27;;;;;;;8.52;5.00;;;12.00;88.00;;;;;;5120386;27;20468;-83
2023/05/25 05:20:53;;;;;;;10.02;4.43;;;12.10;88.10;;;;;;5136595;27;20472;-83
2023/05/25 05:23:19;;;;;;;9.10;5.03;;;12.10;88.20;;;;;;5120296;27;20038;-83
2023/05/25 05:25:45;;;;;;;10.15;4.97;;;12.10;88.30;;;;;;5120435;27;20030;-83
2023/05/25 05:28:10;;;;;;;11.20;5.15;;;12.20;88.20;;;;;;5120290;27;20535;-83
2023/05/25 05:30:36;;;;;;;10.45;4.63;;;12.20;88.40;;;;;;5096847;28;20043;-83
2023/05/25 05:33:02;;;;;;;11.75;5.28;;;12.30;88.50;;;;;;5107325;27;20027;-83
2023/05/25 05:35:27;;;;;;;12.98;4.93;;;12.30;88.50;;;;;;5096188;28;20169;-83
2023/05/25 05:37:53;;;;;;;14.05;4.82;;;12.30;88.60;;;;;;5112971;28;20031;-83
2023/05/25 05:40:18;;;;;;;9.10;4.70;;;12.40;88.70;;;;;;5096270;28;20043;-83
2023/05/25 05:42:44;;;;;;;8.18;4.93;;;12.40;88.80;;;;;;5095914;28;20015;-83
2023/05/25 05:45:10;;;;;;;11.38;5.10;;;12.40;88.90;;;;;;5095935;28;20020;-83
2023/05/25 05:47:36;;;;;;;12.98;5.03;;;12.50;89.10;;;;;;5113103;28;20031;-83
2023/05/25 05:50:02;;;;;;;11.55;4.30;;;12.50;89.50;;;;;;5107218;27;20022;-83
2023/05/25 05:52:27;;;;;;;10.30;4.30;;;12.50;89.80;;;;;;5115152;27;20425;-83
2023/05/25 05:54:53;;;;;;;11.48;4.55;;;12.50;89.90;;;;;;5114946;27;20019;-83
2023/05/25 05:57:19;;;;;;;10.45;4.43;;;12.60;89.70;;;;;;5098296;27;20032;-83
2023/05/25 05:59:45;;;;;;;9.50;4.35;;;12.60;89.80;;;;;;5131935;27;20023;-83
2023/05/25 06:02:11;;;;;;;9.95;4.32;;;12.60;90.00;;;;;;5115614;27;20106;-83
2023/05/25 06:04:37;;;;;;;11.02;4.10;;;12.70;90.10;;;;;;5098045;27;20019;-83
2023/05/25 06:07:02;;;;;;;9.20;4.43;;;12.70;89.90;;;;;;5115197;27;20470;-83
2023/05/25 06:09:28;;;;;;;10.55;4.40;;;12.80;90.10;;;;;;5114958;27;20162;-83
2023/05/25 06:11:54;;;;;;;10.25;3.95;;;12.80;90.00;;;;;;5115702;27;20020;-83
2023/05/25 06:14:19;;;;;;;9.13;4.53;;;12.80;90.00;;;;;;5115860;27;20039;-83
2023/05/25 06:16:45;;;;;;;10.98;4.70;;;12.90;90.00;;;;;;5132751;27;20042;-83
2023/05/25 06:19:11;;;;;;;8.98;4.25;;;12.90;89.40;;;;;;5133127;27;20412;-83
2023/05/25 06:21:36;;;;;;;11.77;4.47;;;13.00;89.40;;;;;;5098940;27;20046;-83
2023/05/25 06:24:02;;;;;;;12.57;4.10;;;13.00;89.10;;;;;;5098746;27;20371;-83
2023/05/25 06:26:28;;;;;;;6.65;3.47;;;13.10;88.90;;;;;;5115728;27;20039;-83
2023/05/25 06:28:55;;;;;;;8.50;3.83;;;13.10;89.10;;;;;;5115300;27;20388;-83
2023/05/25 06:31:21;;;;;;;7.80;3.50;;;13.10;88.60;;;;;;5132633;27;20027;-83
2023/05/25 06:33:46;;;;;;;8.90;3.83;;;13.10;88.70;;;;;;5115382;28;20035;-83
2023/05/25 06:36:13;;;;;;;7.35;3.97;;;13.20;88.60;;;;;;5115487;27;20034;-83
2023/05/25 06:38:39;;;;;;;9.90;4.40;;;13.20;88.40;;;;;;5132555;27;20035;-83
2023/05/25 06:41:06;;;;;;;8.75;3.80;;;13.20;88.40;;;;;;5115840;28;20023;-83
2023/05/25 06:43:32;;;;;;;6.13;3.75;;;13.30;88.10;;;;;;5098645;27;20047;-83
2023/05/25 06:45:57;;;;;;;8.32;3.75;;;13.30;88.10;;;;;;5115366;27;20015;-83
2023/05/25 06:48:23;;;;;;;10.32;4.40;;;13.40;87.90;;;;;;5115423;28;20058;-83
2023/05/25 06:50:49;;;;;;;7.95;3.95;;;13.40;88.30;;;;;;5133854;27;20385;-82
2023/05/25 06:53:15;;;;;;;12.75;4.38;;;13.50;88.50;;;;;;5115422;27;20460;-82
2023/05/25 06:55:41;;;;;;;9.52;3.95;;;13.50;88.20;;;;;;5132412;27;20019;-83
2023/05/25 06:58:07;;;;;;;7.90;3.85;;;13.60;88.10;;;;;;5115343;27;20033;-83
2023/05/25 07:00:32;;;;;;;7.47;4.03;;;13.70;88.20;;;;;;5132442;27;20046;-83
2023/05/25 07:02:58;;;;;;;9.68;4.32;;;13.80;88.00;;;;;;5098118;28;20035;-83
2023/05/25 07:05:24;;;;;;;9.70;4.82;;;13.80;87.80;;;;;;5132309;27;20027;-83
2023/05/25 07:07:49;;;;;;;9.95;3.97;;;13.90;87.60;;;;;;5115143;28;20401;-83
2023/05/25 07:10:15;;;;;;;7.57;4.25;;;13.90;87.20;;;;;;5098347;28;20064;-83
2023/05/25 07:12:41;;;;;;;10.38;4.63;;;13.90;87.20;;;;;;5132271;27;20076;-83
2023/05/25 07:15:07;;;;;;;9.90;3.90;;;13.90;86.80;;;;;;5098075;28;20031;-83
2023/05/25 07:17:35;;;;;;;7.75;3.65;;;14.00;86.80;;;;;;5100590;27;20416;-83
2023/05/25 07:20:01;;;;;;;9.77;4.00;;;14.00;86.60;;;;;;5102717;27;20076;-83
2023/05/25 07:22:27;;;;;;;7.57;3.65;;;14.00;86.30;;;;;;5137819;27;20011;-83
2023/05/25 07:24:52;;;;;;;10.75;4.20;;;14.10;86.00;;;;;;5104598;27;20084;-83
2023/05/25 07:27:18;;;;;;;8.75;4.40;;;14.10;86.00;;;;;;5139056;27;20038;-83
2023/05/25 07:29:44;;;;;;;9.75;4.43;;;14.20;86.20;;;;;;5102231;27;20027;-83
2023/05/25 07:32:10;;;;;;;8.93;4.15;;;14.30;85.80;;;;;;5102189;27;20034;-83
2023/05/25 07:34:36;;;;;;;10.80;4.32;;;14.40;86.40;;;;;;5118943;27;20031;-83
2023/05/25 07:37:01;;;;;;;8.77;4.00;;;14.40;85.70;;;;;;5118027;27;20028;-83
2023/05/25 07:39:27;;;;;;;8.13;3.70;;;14.50;85.40;;;;;;5102063;27;20031;-83
2023/05/25 07:41:53;;;;;;;10.27;4.38;;;14.60;85.10;;;;;;5118907;27;20019;-83
2023/05/25 07:44:18;;;;;;;9.90;3.70;;;14.60;85.20;;;;;;5135305;27;20139;-83
2023/05/25 07:46:44;;;;;;;8.55;4.00;;;14.70;84.90;;;;;;5101821;27;20038;-83
2023/05/25 07:49:14;;;;;;;10.10;4.60;;;14.80;84.40;;;;;;5101712;27;20019;-83
2023/05/25 07:51:44;;;;;;;7.53;3.72;;;14.80;84.50;;;;;;5135911;27;20019;-83
2023/05/25 07:54:10;;;;;;;11.50;3.67;;;14.90;84.20;;;;;;5135706;27;20027;-83
2023/05/25 07:56:37;;;;;;;12.02;4.22;;;14.90;83.60;;;;;;5118396;27;20425;-83
2023/05/25 07:59:02;;;;;;;7.38;3.97;;;15.00;83.60;;;;;;5118495;27;20388;-83
2023/05/25 08:01:28;;;;;;;7.53;3.92;;;15.10;83.30;;;;;;5135543;27;20019;-83
2023/05/25 08:03:54;;;;;;;9.80;3.75;;;15.10;83.30;;;;;;5118366;27;20396;-83
2023/05/25 08:06:20;;;;;;;8.98;3.35;;;15.20;83.70;;;;;;5135489;27;20019;-83
2023/05/25 08:08:45;;;;;;;13.50;4.40;;;15.30;83.00;;;;;;5118357;27;20469;-83
2023/05/25 08:11:11;;;;;;;7.72;4.03;;;15.40;83.50;;;;;;5135625;27;20076;-83
2023/05/25 08:13:38;;;;;;;7.68;3.40;;;15.40;81.60;;;;;;5135391;27;20156;-83
2023/05/25 08:16:03;;;;;;;10.27;3.78;;;15.50;82.10;;;;;;5114520;27;20036;-83
2023/05/25 08:18:30;;;;;;;7.15;3.67;;;15.60;82.20;;;;;;5121306;27;20050;-83
2023/05/25 08:20:56;;;;;;;11.43;4.32;;;15.70;82.20;;;;;;5113775;27;20023;-83
2023/05/25 08:23:22;;;;;;;11.93;4.18;;;15.80;81.60;;;;;;5143209;27;20031;-83
2023/05/25 08:25:47;;;;;;;9.45;3.50;;;15.80;81.10;;;;;;5111958;27;20498;-83
2023/05/25 08:28:13;;;;;;;8.50;3.35;;;15.80;80.90;;;;;;5144190;27;20047;-83
2023/05/25 08:30:39;;;;;;;11.05;4.07;;;15.80;80.90;;;;;;5147255;27;20031;-83
2023/05/25 08:33:06;;;;;;;9.60;3.90;;;15.80;80.50;;;;;;5125987;27;20034;-83
2023/05/25 08:35:31;;;;;;;8.38;4.07;;;15.90;80.50;;;;;;5154629;27;20031;-83
2023/05/25 08:37:57;;;;;;;10.35;4.60;;;15.90;80.20;;;;;;5138362;27;20026;-83
2023/05/25 08:40:27;;;;;;;12.80;4.25;;;16.00;80.60;;;;;;5121233;27;20203;-84
2023/05/25 08:42:52;;;;;;;13.52;3.85;;;16.00;80.40;;;;;;5155109;27;20498;-83
2023/05/25 08:45:18;;;;;;;9.18;3.75;;;16.00;80.50;;;;;;5138258;27;20031;-83
2023/05/25 08:47:47;;;;;;;9.10;3.55;;;16.00;80.20;;;;;;5138478;27;20121;-83
2023/05/25 08:50:15;;;;;;;9.20;3.50;;;16.00;80.50;;;;;;5138628;27;20510;-83
2023/05/25 08:52:46;;;;;;;7.57;3.80;;;16.00;80.30;;;;;;5155381;27;20060;-84
2023/05/25 08:55:17;;;;;;;9.90;3.58;;;16.10;80.20;;;;;;5138353;27;20602;-84
2023/05/25 08:58:01;;;;;;;9.52;3.25;;;16.20;80.50;;;;;;5155207;27;20023;-84
2023/05/25 09:00:57;;;;;;;10.07;4.38;;;16.30;81.00;;;;;;5155256;27;20025;-84
2023/05/25 09:03:24;;;;;;;63.25;7.50;;;16.40;80.00;;;;;;5138855;27;20015;-84
2023/05/25 09:05:50;;;;;;;34.67;4.90;;;16.50;79.50;;;;;;5137840;27;20117;-82
2023/05/25 09:08:16;;;;;;;18.52;3.90;;;16.50;79.00;;;;;;5155243;27;20030;-88
2023/05/25 09:10:42;;;;;;;21.98;4.30;;;16.50;78.50;;;;;;5138060;27;20033;-90
2023/05/25 09:13:08;;;;;;;30.80;4.93;;;16.40;78.40;;;;;;5155977;27;20416;-90
2023/05/25 09:15:34;;;;;;;15.13;3.17;;;16.40;78.40;;;;;;5155572;27;20114;-90
2023/05/25 09:18:00;;;;;;;7.82;2.80;;;16.30;77.80;;;;;;5156850;27;20094;-90
2023/05/25 09:20:30;;;;;;;6.18;3.15;;;16.30;78.30;;;;;;5138410;27;20487;-91
2023/05/25 09:22:57;;;;;;;7.30;2.88;;;16.30;78.60;;;;;;5122487;27;20421;-91
2023/05/25 09:25:26;;;;;;;8.23;3.10;;;16.40;78.00;;;;;;5138621;27;20463;-91
2023/05/25 09:27:52;;;;;;;7.57;2.70;;;16.40;77.50;;;;;;5155903;27;20368;-91
2023/05/25 09:30:18;;;;;;;5.55;2.65;;;16.40;76.70;;;;;;5138465;27;20023;-91
2023/05/25 09:32:43;;;;;;;5.07;2.65;;;16.30;76.40;;;;;;5138119;27;20490;-90
2023/05/25 09:35:13;;;;;;;7.03;3.05;;;16.30;76.80;;;;;;5120807;27;20069;-91
2023/05/25 09:37:40;;;;;;;8.15;3.40;;;16.30;77.20;;;;;;5155305;27;20023;-92
2023/05/25 09:40:07;;;;;;;8.05;3.10;;;16.30;77.50;;;;;;5137371;27;20391;-91
2023/05/25 09:42:34;;;;;;;8.40;3.92;;;16.40;77.80;;;;;;5138279;27;20022;-91
2023/05/25 09:45:00;;;;;;;10.43;3.22;;;16.40;78.10;;;;;;5137894;27;20047;-91
2023/05/25 09:47:27;;;;;;;9.13;3.13;;;16.50;78.40;;;;;;5138199;27;20031;-91
2023/05/25 09:49:53;;;;;;;8.57;3.10;;;16.50;78.20;;;;;;5137760;27;20173;-91
2023/05/25 09:52:19;;;;;;;6.57;2.75;;;16.60;77.80;;;;;;5137901;27;20026;-92
2023/05/25 09:54:47;;;;;;;6.05;2.70;;;16.50;76.60;;;;;;5155027;27;20552;-91
2023/05/25 09:57:14;;;;;;;10.10;3.30;;;16.50;76.40;;;;;;5154796;27;20019;-87
2023/05/25 09:59:40;;;;;;;9.45;3.03;;;16.50;76.40;;;;;;5154905;27;20483;-88
2023/05/25 10:02:06;;;;;;;5.72;3.03;;;16.40;76.80;;;;;;5155063;27;20075;-90
2023/05/25 10:04:32;;;;;;;6.95;2.92;;;16.50;77.00;;;;;;5154681;27;20574;-91
2023/05/25 10:06:59;;;;;;;6.28;2.97;;;16.50;76.70;;;;;;5154706;27;20026;-91
2023/05/25 10:09:28;;;;;;;8.38;3.13;;;16.60;77.10;;;;;;5137392;27;20160;-91
2023/05/25 10:11:56;;;;;;;8.30;3.53;;;16.60;76.90;;;;;;5155842;27;20022;-89
2023/05/25 10:14:28;;;;;;;7.80;2.90;;;16.70;76.40;;;;;;5154768;27;20031;-91
2023/05/25 10:16:56;;;;;;;15.75;3.83;;;16.80;76.40;;;;;;5154584;27;20066;-91
2023/05/25 10:19:40;;;;;;;6.20;2.90;;;16.90;76.60;;;;;;5154646;27;20019;-90
2023/05/25 10:22:44;;;;;;;8.25;3.03;;;17.00;75.80;;;;;;5154444;27;20023;-91
2023/05/25 10:25:27;;;;;;;7.90;3.08;;;17.10;76.50;;;;;;5154408;27;20033;-90
2023/05/25 10:27:56;;;;;;;6.80;2.97;;;17.20;75.60;;;;;;5155506;27;20059;-90
2023/05/25 10:30:24;;;;;;;8.13;3.47;;;17.20;75.40;;;;;;5146788;27;20022;-90
2023/05/25 10:32:50;;;;;;;8.48;4.03;;;17.20;75.20;;;;;;5123730;27;20027;-90
2023/05/25 10:35:17;;;;;;;8.90;3.58;;;17.20;74.60;;;;;;5143551;27;20007;-90
2023/05/25 10:37:44;;;;;;;8.52;3.50;;;17.10;75.10;;;;;;5126087;27;20023;-90
2023/05/25 10:40:12;;;;;;;8.55;3.80;;;17.20;75.60;;;;;;5125647;27;20026;-89
2023/05/25 10:42:39;;;;;;;9.73;4.00;;;17.20;76.00;;;;;;5129082;27;20564;-91
2023/05/25 10:45:07;;;;;;;10.65;4.20;;;17.40;75.80;;;;;;5136682;27;20041;-91
2023/05/25 10:47:42;;;;;;;6.07;3.80;;;17.40;75.90;;;;;;5154079;27;20060;-90
2023/05/25 10:50:25;;;;;;;10.90;3.95;;;17.50;74.90;;;;;;5154103;27;20044;-91
2023/05/25 10:53:11;;;;;;;6.88;4.10;;;17.70;74.70;;;;;;5145748;27;20015;-90
2023/05/25 10:56:04;;;;;;;6.75;3.40;;;17.80;72.60;;;;;;5142640;27;20064;-90
2023/05/25 10:58:31;;;;;;;6.40;3.67;;;17.90;73.70;;;;;;5123643;27;20076;-90
2023/05/25 11:01:00;;;;;;;8.40;3.70;;;18.10;74.40;;;;;;5154044;27;20011;-90
2023/05/25 11:04:04;;;;;;;9.73;3.72;;;18.20;73.20;;;;;;5154024;27;20059;-91
2023/05/25 11:06:36;;;;;;;9.10;3.53;;;18.30;72.10;;;;;;5153796;27;20038;-91
2023/05/25 11:09:02;;;;;;;11.80;3.83;;;18.40;71.90;;;;;;5155105;27;20054;-90
2023/05/25 11:11:47;;;;;;;12.30;3.88;;;18.40;71.20;;;;;;5136729;27;20517;-90
2023/05/25 11:14:31;;;;;;;7.28;3.45;;;18.40;70.50;;;;;;5153756;27;20475;-90
2023/05/25 11:17:06;;;;;;;9.93;3.75;;;18.30;72.40;;;;;;5153884;27;20110;-91
2023/05/25 11:19:49;;;;;;;7.65;3.90;;;18.30;71.50;;;;;;5153752;27;20038;-90
2023/05/25 11:22:29;;;;;;;8.05;4.07;;;18.40;71.30;;;;;;5153734;27;20026;-90
2023/05/25 11:24:57;;;;;;;6.45;3.42;;;18.30;70.10;;;;;;5135063;27;20027;-89
2023/05/25 11:27:43;;;;;;;7.95;3.80;;;18.30;70.60;;;;;;5134089;28;20522;-89
2023/05/25 11:30:10;;;;;;;10.23;4.10;;;18.30;70.70;;;;;;5133067;27;20031;-89
2023/05/25 11:32:38;;;;;;;6.90;3.15;;;18.20;70.40;;;;;;5134633;27;20042;-91
2023/05/25 11:35:08;;;;;;;10.55;3.47;;;18.20;70.20;;;;;;5136682;27;20365;-90
2023/05/25 11:37:33;;;;;;;7.85;4.10;;;18.20;70.50;;;;;;5136479;27;20027;-91
2023/05/25 11:39:59;;;;;;;9.65;3.70;;;18.30;72.00;;;;;;5119555;27;20029;-90
2023/05/25 11:42:25;;;;;;;9.15;4.30;;;18.40;70.80;;;;;;5135897;27;20033;-89
2023/05/25 11:44:50;;;;;;;11.07;4.30;;;18.40;70.50;;;;;;5153018;27;20082;-90
2023/05/25 11:47:21;;;;;;;10.05;4.25;;;18.40;70.10;;;;;;5153462;27;20080;-90
2023/05/25 11:49:48;;;;;;;10.32;4.60;;;18.30;70.40;;;;;;5153381;27;20030;-90
2023/05/25 11:52:15;;;;;;;8.93;3.90;;;18.40;71.00;;;;;;5154505;27;20023;-90
2023/05/25 11:54:41;;;;;;;9.40;4.18;;;18.40;71.30;;;;;;5153650;27;20535;-90
2023/05/25 11:57:13;;;;;;;9.75;4.03;;;18.50;71.30;;;;;;5119102;27;20023;-88
2023/05/25 11:59:40;;;;;;;8.05;4.40;;;18.70;71.10;;;;;;5153434;27;20491;-90
2023/05/25 12:02:06;;;;;;;8.20;3.80;;;18.90;69.10;;;;;;5153465;27;20034;-90
2023/05/25 12:04:33;;;;;;;6.20;3.55;;;19.00;69.70;;;;;;5155633;27;20023;-91
2023/05/25 12:07:06;;;;;;;10.50;4.28;;;19.10;68.90;;;;;;5139658;27;20638;-90
2023/05/25 12:09:33;;;;;;;7.18;3.85;;;19.10;67.20;;;;;;5157091;27;20018;-90
2023/05/25 12:11:59;;;;;;;8.15;3.88;;;19.20;68.30;;;;;;5139945;27;20026;-88
2023/05/25 12:14:25;;;;;;;7.78;3.83;;;19.30;68.30;;;;;;5156932;27;20431;-91
2023/05/25 12:16:51;;;;;;;8.57;3.80;;;19.40;69.00;;;;;;5122504;27;20046;-91
2023/05/25 12:19:17;;;;;;;7.15;3.42;;;19.50;67.60;;;;;;5139719;27;20022;-90
2023/05/25 12:21:44;;;;;;;6.50;3.20;;;19.50;66.70;;;;;;5157069;27;20498;-89
2023/05/25 12:24:11;;;;;;;7.47;3.40;;;19.40;66.50;;;;;;5139499;27;20544;-90
2023/05/25 12:26:56;;;;;;;7.30;3.83;;;19.40;66.20;;;;;;5122597;27;20022;-90
2023/05/25 12:29:22;;;;;;;5.80;3.20;;;19.40;65.00;;;;;;5140158;27;20038;-90
2023/05/25 12:31:48;;;;;;;9.43;3.50;;;19.30;66.30;;;;;;5156721;27;20019;-90
2023/05/25 12:34:15;;;;;;;8.95;3.25;;;19.40;66.50;;;;;;5139128;27;20056;-90
2023/05/25 12:36:55;;;;;;;5.68;3.22;;;19.40;66.40;;;;;;5157617;27;20392;-89
2023/05/25 12:39:33;;;;;;;5.30;3.28;;;19.40;65.40;;;;;;5156194;27;20407;-88
2023/05/25 12:42:03;;;;;;;7.00;3.22;;;19.40;65.60;;;;;;5142962;27;20585;-90
2023/05/25 12:44:34;;;;;;;7.32;3.03;;;19.20;65.30;;;;;;5144229;27;20043;-89
2023/05/25 12:47:10;;;;;;;5.25;2.97;;;19.20;65.50;;;;;;5130709;27;20087;-91
2023/05/25 12:49:36;;;;;;;5.00;2.92;;;19.10;65.50;;;;;;5142268;27;20027;-89
2023/05/25 12:52:03;;;;;;;7.28;3.72;;;19.00;65.80;;;;;;5138793;27;20027;-90
2023/05/25 12:54:39;;;;;;;8.10;2.88;;;19.00;66.30;;;;;;5138374;27;20046;-91